sensor_id;sensor_type;location;lat;lon;timestamp;P1;durP1;ratioP1;P2;durP2;ratioP2
51332;SDS011;37417;48.118;11.734;2023-11-21T00:02:03;2.22;;;1.30;;
51332;SDS011;37417;48.118;11.734;2023-11-21T00:04:50;3.75;;;0.68;;
51332;SDS011;37417;48.118;11.734;2023-11-21T00:07:36;10.13;;;1.00;;
51332;SDS011;37417;48.118;11.734;2023-11-21T00:10:22;1.23;;;0.80;;
51332;SDS011;37417;48.118;11.734;2023-11-21T00:13:07;2.83;;;0.60;;
51332;SDS011;37417;48.118;11.734;2023-11-21T00:15:53;1.83;;;0.40;;
51332;SDS011;37417;48.118;11.734;2023-11-21T00:18:38;7.10;;;0.90;;
51332;SDS011;37417;48.118;11.734;2023-11-21T00:21:24;2.08;;;0.80;;
51332;SDS011;37417;48.118;11.734;2023-11-21T00:24:11;7.32;;;1.02;;
51332;SDS011;37417;48.118;11.734;2023-11-21T00:26:59;1.35;;;0.50;;
51332;SDS011;37417;48.118;11.734;2023-11-21T00:29:44;3.40;;;0.73;;
51332;SDS011;37417;48.118;11.734;2023-11-21T00:32:30;2.63;;;0.88;;
51332;SDS011;37417;48.118;11.734;2023-11-21T00:35:15;5.07;;;0.73;;
51332;SDS011;37417;48.118;11.734;2023-11-21T00:38:01;4.57;;;1.02;;
51332;SDS011;37417;48.118;11.734;2023-11-21T00:40:46;6.03;;;0.70;;
51332;SDS011;37417;48.118;11.734;2023-11-21T00:43:32;3.60;;;0.55;;
51332;SDS011;37417;48.118;11.734;2023-11-21T00:46:21;3.20;;;1.15;;
51332;SDS011;37417;48.118;11.734;2023-11-21T00:49:06;2.72;;;0.90;;
51332;SDS011;37417;48.118;11.734;2023-11-21T00:51:53;11.38;;;1.02;;
51332;SDS011;37417;48.118;11.734;2023-11-21T00:54:38;3.78;;;0.73;;
51332;SDS011;37417;48.118;11.734;2023-11-21T00:57:24;1.95;;;0.73;;
51332;SDS011;37417;48.118;11.734;2023-11-21T01:00:09;5.43;;;0.75;;
51332;SDS011;37417;48.118;11.734;2023-11-21T01:03:02;3.15;;;0.40;;
51332;SDS011;37417;48.118;11.734;2023-11-21T01:05:48;3.03;;;0.68;;
51332;SDS011;37417;48.118;11.734;2023-11-21T01:08:35;5.00;;;0.90;;
51332;SDS011;37417;48.118;11.734;2023-11-21T01:11:21;2.83;;;0.60;;
51332;SDS011;37417;48.118;11.734;2023-11-21T01:14:06;2.83;;;0.60;;
51332;SDS011;37417;48.118;11.734;2023-11-21T01:16:54;5.05;;;0.80;;
51332;SDS011;37417;48.118;11.734;2023-11-21T01:19:40;5.65;;;0.93;;
51332;SDS011;37417;48.118;11.734;2023-11-21T01:22:25;4.75;;;0.80;;
51332;SDS011;37417;48.118;11.734;2023-11-21T01:25:12;5.57;;;0.70;;
51332;SDS011;37417;48.118;11.734;2023-11-21T01:27:59;5.00;;;0.85;;
51332;SDS011;37417;48.118;11.734;2023-11-21T01:30:45;6.78;;;0.95;;
51332;SDS011;37417;48.118;11.734;2023-11-21T01:33:31;3.10;;;0.40;;
51332;SDS011;37417;48.118;11.734;2023-11-21T01:36:16;2.40;;;0.75;;
51332;SDS011;37417;48.118;11.734;2023-11-21T01:39:02;2.55;;;0.77;;
51332;SDS011;37417;48.118;11.734;2023-11-21T01:41:53;4.32;;;1.08;;
51332;SDS011;37417;48.118;11.734;2023-11-21T01:44:39;5.03;;;0.80;;
51332;SDS011;37417;48.118;11.734;2023-11-21T01:47:24;5.25;;;0.75;;
51332;SDS011;37417;48.118;11.734;2023-11-21T01:50:13;1.20;;;0.93;;
51332;SDS011;37417;48.118;11.734;2023-11-21T01:52:59;3.40;;;0.77;;
51332;SDS011;37417;48.118;11.734;2023-11-21T01:55:46;5.68;;;1.08;;
51332;SDS011;37417;48.118;11.734;2023-11-21T01:58:32;1.75;;;0.73;;
51332;SDS011;37417;48.118;11.734;2023-11-21T02:01:18;6.07;;;0.60;;
51332;SDS011;37417;48.118;11.734;2023-11-21T02:04:03;6.68;;;0.88;;
51332;SDS011;37417;48.118;11.734;2023-11-21T02:06:49;5.70;;;0.90;;
51332;SDS011;37417;48.118;11.734;2023-11-21T02:09:36;5.25;;;0.80;;
51332;SDS011;37417;48.118;11.734;2023-11-21T02:12:23;6.35;;;0.98;;
51332;SDS011;37417;48.118;11.734;2023-11-21T02:15:15;2.83;;;0.75;;
51332;SDS011;37417;48.118;11.734;2023-11-21T02:18:00;2.50;;;0.60;;
51332;SDS011;37417;48.118;11.734;2023-11-21T02:20:48;4.15;;;0.60;;
51332;SDS011;37417;48.118;11.734;2023-11-21T02:23:34;1.80;;;0.70;;
51332;SDS011;37417;48.118;11.734;2023-11-21T02:26:19;5.97;;;0.77;;
51332;SDS011;37417;48.118;11.734;2023-11-21T02:29:05;2.88;;;0.50;;
51332;SDS011;37417;48.118;11.734;2023-11-21T02:31:51;0.75;;;0.30;;
51332;SDS011;37417;48.118;11.734;2023-11-21T02:34:37;9.43;;;1.10;;
51332;SDS011;37417;48.118;11.734;2023-11-21T02:37:23;6.55;;;1.13;;
51332;SDS011;37417;48.118;11.734;2023-11-21T02:40:09;9.82;;;1.30;;
51332;SDS011;37417;48.118;11.734;2023-11-21T02:42:55;2.70;;;0.88;;
51332;SDS011;37417;48.118;11.734;2023-11-21T02:45:40;5.82;;;1.02;;
51332;SDS011;37417;48.118;11.734;2023-11-21T02:48:27;2.53;;;0.80;;
51332;SDS011;37417;48.118;11.734;2023-11-21T02:51:12;2.55;;;0.85;;
51332;SDS011;37417;48.118;11.734;2023-11-21T02:53:58;3.83;;;1.02;;
51332;SDS011;37417;48.118;11.734;2023-11-21T02:56:44;1.38;;;0.70;;
51332;SDS011;37417;48.118;11.734;2023-11-21T02:59:31;6.43;;;1.00;;
51332;SDS011;37417;48.118;11.734;2023-11-21T03:02:16;4.60;;;0.82;;
51332;SDS011;37417;48.118;11.734;2023-11-21T03:05:02;3.30;;;1.33;;
51332;SDS011;37417;48.118;11.734;2023-11-21T03:07:49;2.15;;;0.55;;
51332;SDS011;37417;48.118;11.734;2023-11-21T03:10:34;2.00;;;0.43;;
51332;SDS011;37417;48.118;11.734;2023-11-21T03:13:21;3.45;;;0.63;;
51332;SDS011;37417;48.118;11.734;2023-11-21T03:16:09;2.80;;;0.30;;
51332;SDS011;37417;48.118;11.734;2023-11-21T03:18:55;3.28;;;0.60;;
51332;SDS011;37417;48.118;11.734;2023-11-21T03:21:41;2.92;;;0.60;;
51332;SDS011;37417;48.118;11.734;2023-11-21T03:24:26;0.77;;;0.50;;
51332;SDS011;37417;48.118;11.734;2023-11-21T03:27:12;1.40;;;0.57;;
51332;SDS011;37417;48.118;11.734;2023-11-21T03:29:57;3.95;;;0.63;;
51332;SDS011;37417;48.118;11.734;2023-11-21T03:32:43;2.20;;;0.63;;
51332;SDS011;37417;48.118;11.734;2023-11-21T03:35:29;5.40;;;0.80;;
51332;SDS011;37417;48.118;11.734;2023-11-21T03:38:14;3.10;;;0.95;;
51332;SDS011;37417;48.118;11.734;2023-11-21T03:41:01;1.27;;;0.47;;
51332;SDS011;37417;48.118;11.734;2023-11-21T03:43:46;5.05;;;1.00;;
51332;SDS011;37417;48.118;11.734;2023-11-21T03:46:32;3.80;;;0.95;;
51332;SDS011;37417;48.118;11.734;2023-11-21T03:49:17;4.05;;;0.82;;
51332;SDS011;37417;48.118;11.734;2023-11-21T03:52:03;3.90;;;0.80;;
51332;SDS011;37417;48.118;11.734;2023-11-21T03:54:49;1.80;;;0.80;;
51332;SDS011;37417;48.118;11.734;2023-11-21T03:57:34;3.65;;;0.75;;
51332;SDS011;37417;48.118;11.734;2023-11-21T04:00:20;1.42;;;0.47;;
51332;SDS011;37417;48.118;11.734;2023-11-21T04:03:06;1.05;;;0.70;;
51332;SDS011;37417;48.118;11.734;2023-11-21T04:05:52;3.60;;;0.85;;
51332;SDS011;37417;48.118;11.734;2023-11-21T04:08:37;5.38;;;0.47;;
51332;SDS011;37417;48.118;11.734;2023-11-21T04:11:23;2.88;;;0.52;;
51332;SDS011;37417;48.118;11.734;2023-11-21T04:14:08;2.15;;;0.52;;
51332;SDS011;37417;48.118;11.734;2023-11-21T04:16:54;4.63;;;0.80;;
51332;SDS011;37417;48.118;11.734;2023-11-21T04:19:40;5.50;;;0.80;;
51332;SDS011;37417;48.118;11.734;2023-11-21T04:22:26;2.50;;;0.73;;
51332;SDS011;37417;48.118;11.734;2023-11-21T04:25:12;1.50;;;0.32;;
51332;SDS011;37417;48.118;11.734;2023-11-21T04:27:58;1.70;;;0.63;;
51332;SDS011;37417;48.118;11.734;2023-11-21T04:30:44;2.10;;;0.80;;
51332;SDS011;37417;48.118;11.734;2023-11-21T04:33:29;2.22;;;0.68;;
51332;SDS011;37417;48.118;11.734;2023-11-21T04:36:15;4.82;;;0.70;;
51332;SDS011;37417;48.118;11.734;2023-11-21T04:39:01;10.70;;;0.60;;
51332;SDS011;37417;48.118;11.734;2023-11-21T04:41:46;1.95;;;0.50;;
51332;SDS011;37417;48.118;11.734;2023-11-21T04:44:32;4.57;;;0.50;;
51332;SDS011;37417;48.118;11.734;2023-11-21T04:47:18;1.75;;;0.93;;
51332;SDS011;37417;48.118;11.734;2023-11-21T04:50:04;1.98;;;0.55;;
51332;SDS011;37417;48.118;11.734;2023-11-21T04:52:51;2.90;;;0.55;;
51332;SDS011;37417;48.118;11.734;2023-11-21T04:55:36;1.45;;;0.40;;
51332;SDS011;37417;48.118;11.734;2023-11-21T04:58:22;1.10;;;0.30;;
51332;SDS011;37417;48.118;11.734;2023-11-21T05:01:07;3.33;;;0.60;;
51332;SDS011;37417;48.118;11.734;2023-11-21T05:03:53;3.30;;;0.57;;
51332;SDS011;37417;48.118;11.734;2023-11-21T05:06:39;1.10;;;0.50;;
51332;SDS011;37417;48.118;11.734;2023-11-21T05:09:24;0.80;;;0.50;;
51332;SDS011;37417;48.118;11.734;2023-11-21T05:12:10;1.95;;;0.40;;
51332;SDS011;37417;48.118;11.734;2023-11-21T05:14:56;0.20;;;0.20;;
51332;SDS011;37417;48.118;11.734;2023-11-21T05:17:43;1.13;;;0.52;;
51332;SDS011;37417;48.118;11.734;2023-11-21T05:20:32;1.50;;;0.55;;
51332;SDS011;37417;48.118;11.734;2023-11-21T05:23:18;1.30;;;0.22;;
51332;SDS011;37417;48.118;11.734;2023-11-21T05:26:03;0.52;;;0.52;;
51332;SDS011;37417;48.118;11.734;2023-11-21T05:28:49;4.18;;;0.98;;
51332;SDS011;37417;48.118;11.734;2023-11-21T05:31:35;0.75;;;0.50;;
51332;SDS011;37417;48.118;11.734;2023-11-21T05:34:20;1.55;;;0.70;;
51332;SDS011;37417;48.118;11.734;2023-11-21T05:37:09;1.13;;;0.43;;
51332;SDS011;37417;48.118;11.734;2023-11-21T05:39:54;1.35;;;0.77;;
51332;SDS011;37417;48.118;11.734;2023-11-21T05:42:41;1.38;;;0.28;;
51332;SDS011;37417;48.118;11.734;2023-11-21T05:45:27;0.98;;;0.40;;
51332;SDS011;37417;48.118;11.734;2023-11-21T05:48:14;0.43;;;0.40;;
51332;SDS011;37417;48.118;11.734;2023-11-21T05:51:01;2.60;;;0.60;;
51332;SDS011;37417;48.118;11.734;2023-11-21T05:53:47;4.28;;;0.85;;
51332;SDS011;37417;48.118;11.734;2023-11-21T05:56:32;1.27;;;0.52;;
51332;SDS011;37417;48.118;11.734;2023-11-21T05:59:18;3.25;;;0.40;;
51332;SDS011;37417;48.118;11.734;2023-11-21T06:02:03;8.20;;;0.93;;
51332;SDS011;37417;48.118;11.734;2023-11-21T06:04:50;2.78;;;0.40;;
51332;SDS011;37417;48.118;11.734;2023-11-21T06:07:35;1.48;;;0.50;;
51332;SDS011;37417;48.118;11.734;2023-11-21T06:10:22;1.25;;;0.55;;
51332;SDS011;37417;48.118;11.734;2023-11-21T06:13:09;0.85;;;0.30;;
51332;SDS011;37417;48.118;11.734;2023-11-21T06:15:55;4.28;;;0.95;;
51332;SDS011;37417;48.118;11.734;2023-11-21T06:18:41;2.33;;;0.60;;
51332;SDS011;37417;48.118;11.734;2023-11-21T06:21:26;0.30;;;0.30;;
51332;SDS011;37417;48.118;11.734;2023-11-21T06:24:12;1.35;;;0.45;;
51332;SDS011;37417;48.118;11.734;2023-11-21T06:26:58;1.83;;;0.70;;
51332;SDS011;37417;48.118;11.734;2023-11-21T06:29:44;3.78;;;0.40;;
51332;SDS011;37417;48.118;11.734;2023-11-21T06:32:29;0.73;;;0.17;;
51332;SDS011;37417;48.118;11.734;2023-11-21T06:35:15;1.67;;;0.80;;
51332;SDS011;37417;48.118;11.734;2023-11-21T06:38:01;0.82;;;0.40;;
51332;SDS011;37417;48.118;11.734;2023-11-21T06:40:46;0.43;;;0.38;;
51332;SDS011;37417;48.118;11.734;2023-11-21T06:43:32;1.70;;;0.40;;
51332;SDS011;37417;48.118;11.734;2023-11-21T06:46:17;2.28;;;0.60;;
51332;SDS011;37417;48.118;11.734;2023-11-21T06:49:05;0.55;;;0.30;;
51332;SDS011;37417;48.118;11.734;2023-11-21T06:51:51;4.45;;;0.73;;
51332;SDS011;37417;48.118;11.734;2023-11-21T06:54:38;1.77;;;0.93;;
51332;SDS011;37417;48.118;11.734;2023-11-21T06:57:24;4.47;;;0.50;;
51332;SDS011;37417;48.118;11.734;2023-11-21T07:00:09;2.30;;;0.60;;
51332;SDS011;37417;48.118;11.734;2023-11-21T07:02:55;2.15;;;0.68;;
51332;SDS011;37417;48.118;11.734;2023-11-21T07:05:41;3.35;;;0.60;;
51332;SDS011;37417;48.118;11.734;2023-11-21T07:08:26;3.38;;;0.70;;
51332;SDS011;37417;48.118;11.734;2023-11-21T07:11:12;2.95;;;0.43;;
51332;SDS011;37417;48.118;11.734;2023-11-21T07:13:57;4.38;;;0.70;;
51332;SDS011;37417;48.118;11.734;2023-11-21T07:16:43;1.35;;;0.40;;
51332;SDS011;37417;48.118;11.734;2023-11-21T07:19:28;2.70;;;0.47;;
51332;SDS011;37417;48.118;11.734;2023-11-21T07:22:16;0.68;;;0.60;;
51332;SDS011;37417;48.118;11.734;2023-11-21T07:25:06;2.20;;;0.60;;
51332;SDS011;37417;48.118;11.734;2023-11-21T07:27:52;0.98;;;0.40;;
51332;SDS011;37417;48.118;11.734;2023-11-21T07:30:40;2.33;;;0.75;;
51332;SDS011;37417;48.118;11.734;2023-11-21T07:33:26;2.85;;;0.50;;
51332;SDS011;37417;48.118;11.734;2023-11-21T07:36:11;4.03;;;0.57;;
51332;SDS011;37417;48.118;11.734;2023-11-21T07:38:57;1.65;;;0.70;;
51332;SDS011;37417;48.118;11.734;2023-11-21T07:41:42;1.98;;;0.47;;
51332;SDS011;37417;48.118;11.734;2023-11-21T07:44:33;0.68;;;0.45;;
51332;SDS011;37417;48.118;11.734;2023-11-21T07:47:19;4.07;;;0.50;;
51332;SDS011;37417;48.118;11.734;2023-11-21T07:50:04;0.52;;;0.40;;
51332;SDS011;37417;48.118;11.734;2023-11-21T07:52:50;0.50;;;0.50;;
51332;SDS011;37417;48.118;11.734;2023-11-21T07:55:36;0.98;;;0.25;;
51332;SDS011;37417;48.118;11.734;2023-11-21T07:58:21;1.67;;;0.45;;
51332;SDS011;37417;48.118;11.734;2023-11-21T08:01:07;1.25;;;0.50;;
51332;SDS011;37417;48.118;11.734;2023-11-21T08:03:53;0.98;;;0.38;;
51332;SDS011;37417;48.118;11.734;2023-11-21T08:06:42;3.38;;;1.25;;
51332;SDS011;37417;48.118;11.734;2023-11-21T08:09:27;2.17;;;0.77;;
51332;SDS011;37417;48.118;11.734;2023-11-21T08:12:13;0.28;;;0.25;;
51332;SDS011;37417;48.118;11.734;2023-11-21T08:15:00;2.28;;;0.68;;
51332;SDS011;37417;48.118;11.734;2023-11-21T08:17:46;0.45;;;0.32;;
51332;SDS011;37417;48.118;11.734;2023-11-21T08:20:31;1.13;;;0.35;;
51332;SDS011;37417;48.118;11.734;2023-11-21T08:23:17;1.02;;;0.35;;
51332;SDS011;37417;48.118;11.734;2023-11-21T08:26:04;0.60;;;0.40;;
51332;SDS011;37417;48.118;11.734;2023-11-21T08:28:50;0.20;;;0.20;;
51332;SDS011;37417;48.118;11.734;2023-11-21T08:31:37;3.97;;;0.60;;
51332;SDS011;37417;48.118;11.734;2023-11-21T08:34:23;2.38;;;0.43;;
51332;SDS011;37417;48.118;11.734;2023-11-21T08:37:09;1.65;;;0.20;;
51332;SDS011;37417;48.118;11.734;2023-11-21T08:39:57;1.45;;;0.20;;
51332;SDS011;37417;48.118;11.734;2023-11-21T08:42:44;3.28;;;0.68;;
51332;SDS011;37417;48.118;11.734;2023-11-21T08:45:31;4.13;;;0.50;;
51332;SDS011;37417;48.118;11.734;2023-11-21T08:48:19;3.15;;;0.30;;
51332;SDS011;37417;48.118;11.734;2023-11-21T08:51:04;0.40;;;0.30;;
51332;SDS011;37417;48.118;11.734;2023-11-21T08:53:50;2.35;;;0.50;;
51332;SDS011;37417;48.118;11.734;2023-11-21T08:56:36;0.50;;;0.30;;
51332;SDS011;37417;48.118;11.734;2023-11-21T08:59:22;0.85;;;0.60;;
51332;SDS011;37417;48.118;11.734;2023-11-21T09:02:07;0.47;;;0.32;;
51332;SDS011;37417;48.118;11.734;2023-11-21T09:04:53;0.30;;;0.30;;
51332;SDS011;37417;48.118;11.734;2023-11-21T09:07:39;1.98;;;0.40;;
51332;SDS011;37417;48.118;11.734;2023-11-21T09:10:26;1.17;;;0.30;;
51332;SDS011;37417;48.118;11.734;2023-11-21T09:13:13;2.53;;;0.43;;
51332;SDS011;37417;48.118;11.734;2023-11-21T09:15:59;1.05;;;0.25;;
51332;SDS011;37417;48.118;11.734;2023-11-21T09:18:45;0.70;;;0.30;;
51332;SDS011;37417;48.118;11.734;2023-11-21T09:21:30;1.83;;;0.90;;
51332;SDS011;37417;48.118;11.734;2023-11-21T09:24:16;0.45;;;0.45;;
51332;SDS011;37417;48.118;11.734;2023-11-21T09:27:01;3.97;;;0.63;;
51332;SDS011;37417;48.118;11.734;2023-11-21T09:29:47;0.32;;;0.30;;
51332;SDS011;37417;48.118;11.734;2023-11-21T09:32:33;0.77;;;0.32;;
51332;SDS011;37417;48.118;11.734;2023-11-21T09:35:20;5.10;;;0.85;;
51332;SDS011;37417;48.118;11.734;2023-11-21T09:38:06;1.10;;;0.45;;
51332;SDS011;37417;48.118;11.734;2023-11-21T09:40:56;1.17;;;0.35;;
51332;SDS011;37417;48.118;11.734;2023-11-21T09:43:45;0.95;;;0.35;;
51332;SDS011;37417;48.118;11.734;2023-11-21T09:46:31;0.70;;;0.50;;
51332;SDS011;37417;48.118;11.734;2023-11-21T09:49:18;0.20;;;0.20;;
51332;SDS011;37417;48.118;11.734;2023-11-21T09:52:05;0.68;;;0.40;;
51332;SDS011;37417;48.118;11.734;2023-11-21T09:54:54;1.85;;;0.52;;
51332;SDS011;37417;48.118;11.734;2023-11-21T09:57:42;3.03;;;0.85;;
51332;SDS011;37417;48.118;11.734;2023-11-21T10:00:27;7.57;;;1.10;;
51332;SDS011;37417;48.118;11.734;2023-11-21T10:03:14;0.73;;;0.40;;
51332;SDS011;37417;48.118;11.734;2023-11-21T10:06:00;0.73;;;0.45;;
51332;SDS011;37417;48.118;11.734;2023-11-21T10:08:46;7.40;;;0.90;;
51332;SDS011;37417;48.118;11.734;2023-11-21T10:11:33;0.55;;;0.30;;
51332;SDS011;37417;48.118;11.734;2023-11-21T10:14:19;1.40;;;0.52;;
51332;SDS011;37417;48.118;11.734;2023-11-21T10:17:10;2.60;;;0.40;;
51332;SDS011;37417;48.118;11.734;2023-11-21T10:19:57;0.55;;;0.38;;
51332;SDS011;37417;48.118;11.734;2023-11-21T10:22:43;0.45;;;0.45;;
51332;SDS011;37417;48.118;11.734;2023-11-21T10:25:28;7.57;;;0.57;;
51332;SDS011;37417;48.118;11.734;2023-11-21T10:28:14;1.85;;;0.43;;
51332;SDS011;37417;48.118;11.734;2023-11-21T10:30:59;1.95;;;0.45;;
51332;SDS011;37417;48.118;11.734;2023-11-21T10:33:45;5.38;;;0.73;;
51332;SDS011;37417;48.118;11.734;2023-11-21T10:36:30;0.70;;;0.28;;
51332;SDS011;37417;48.118;11.734;2023-11-21T10:39:16;4.95;;;0.77;;
51332;SDS011;37417;48.118;11.734;2023-11-21T10:42:07;2.05;;;0.50;;
51332;SDS011;37417;48.118;11.734;2023-11-21T10:44:53;1.55;;;0.60;;
51332;SDS011;37417;48.118;11.734;2023-11-21T10:47:39;1.00;;;0.55;;
51332;SDS011;37417;48.118;11.734;2023-11-21T10:50:25;0.90;;;0.50;;
51332;SDS011;37417;48.118;11.734;2023-11-21T10:53:11;0.50;;;0.40;;
51332;SDS011;37417;48.118;11.734;2023-11-21T10:56:02;3.45;;;0.77;;
51332;SDS011;37417;48.118;11.734;2023-11-21T10:58:49;1.25;;;0.25;;
51332;SDS011;37417;48.118;11.734;2023-11-21T11:01:36;0.45;;;0.35;;
51332;SDS011;37417;48.118;11.734;2023-11-21T11:04:22;0.68;;;0.30;;
51332;SDS011;37417;48.118;11.734;2023-11-21T11:07:08;2.20;;;0.65;;
51332;SDS011;37417;48.118;11.734;2023-11-21T11:09:58;0.85;;;0.60;;
51332;SDS011;37417;48.118;11.734;2023-11-21T11:12:44;1.75;;;0.30;;
51332;SDS011;37417;48.118;11.734;2023-11-21T11:15:31;0.95;;;0.50;;
51332;SDS011;37417;48.118;11.734;2023-11-21T11:18:16;1.98;;;0.73;;
51332;SDS011;37417;48.118;11.734;2023-11-21T11:24:05;0.47;;;0.38;;
51332;SDS011;37417;48.118;11.734;2023-11-21T11:29:46;0.30;;;0.30;;
51332;SDS011;37417;48.118;11.734;2023-11-21T11:32:43;2.35;;;0.52;;
51332;SDS011;37417;48.118;11.734;2023-11-21T11:38:36;0.60;;;0.45;;
51332;SDS011;37417;48.118;11.734;2023-11-21T11:41:26;1.85;;;0.65;;
51332;SDS011;37417;48.118;11.734;2023-11-21T11:47:24;3.53;;;0.60;;
51332;SDS011;37417;48.118;11.734;2023-11-21T11:53:12;1.73;;;0.57;;
51332;SDS011;37417;48.118;11.734;2023-11-21T11:56:12;2.38;;;0.40;;
51332;SDS011;37417;48.118;11.734;2023-11-21T11:59:03;0.40;;;0.38;;
51332;SDS011;37417;48.118;11.734;2023-11-21T12:01:49;0.75;;;0.30;;
51332;SDS011;37417;48.118;11.734;2023-11-21T12:04:35;2.33;;;0.55;;
51332;SDS011;37417;48.118;11.734;2023-11-21T12:07:38;0.98;;;0.50;;
51332;SDS011;37417;48.118;11.734;2023-11-21T12:10:24;3.40;;;0.73;;
51332;SDS011;37417;48.118;11.734;2023-11-21T12:13:10;0.43;;;0.30;;
51332;SDS011;37417;48.118;11.734;2023-11-21T12:15:57;1.20;;;0.43;;
51332;SDS011;37417;48.118;11.734;2023-11-21T12:18:43;1.95;;;0.30;;
51332;SDS011;37417;48.118;11.734;2023-11-21T12:21:29;1.75;;;0.45;;
51332;SDS011;37417;48.118;11.734;2023-11-21T12:24:15;0.43;;;0.30;;
51332;SDS011;37417;48.118;11.734;2023-11-21T12:27:01;0.32;;;0.22;;
51332;SDS011;37417;48.118;11.734;2023-11-21T12:29:47;5.97;;;0.50;;
51332;SDS011;37417;48.118;11.734;2023-11-21T12:32:33;1.23;;;0.40;;
51332;SDS011;37417;48.118;11.734;2023-11-21T12:35:19;2.28;;;0.47;;
51332;SDS011;37417;48.118;11.734;2023-11-21T12:38:05;1.23;;;0.20;;
51332;SDS011;37417;48.118;11.734;2023-11-21T12:40:50;2.10;;;0.43;;
51332;SDS011;37417;48.118;11.734;2023-11-21T12:43:36;1.83;;;0.50;;
51332;SDS011;37417;48.118;11.734;2023-11-21T12:46:23;3.05;;;0.50;;
51332;SDS011;37417;48.118;11.734;2023-11-21T12:49:12;0.80;;;0.45;;
51332;SDS011;37417;48.118;11.734;2023-11-21T12:52:02;0.60;;;0.32;;
51332;SDS011;37417;48.118;11.734;2023-11-21T12:54:49;0.50;;;0.30;;
51332;SDS011;37417;48.118;11.734;2023-11-21T12:57:34;0.80;;;0.35;;
51332;SDS011;37417;48.118;11.734;2023-11-21T13:01:06;0.95;;;0.35;;
51332;SDS011;37417;48.118;11.734;2023-11-21T13:03:32;1.02;;;0.22;;
51332;SDS011;37417;48.118;11.734;2023-11-21T13:06:18;0.35;;;0.20;;
51332;SDS011;37417;48.118;11.734;2023-11-21T13:09:05;1.33;;;0.22;;
51332;SDS011;37417;48.118;11.734;2023-11-21T13:11:50;0.45;;;0.25;;
51332;SDS011;37417;48.118;11.734;2023-11-21T13:14:39;0.10;;;0.10;;
51332;SDS011;37417;48.118;11.734;2023-11-21T13:17:25;0.63;;;0.40;;
51332;SDS011;37417;48.118;11.734;2023-11-21T13:20:11;0.30;;;0.30;;
51332;SDS011;37417;48.118;11.734;2023-11-21T13:23:06;1.55;;;0.52;;
51332;SDS011;37417;48.118;11.734;2023-11-21T13:25:53;0.22;;;0.20;;
51332;SDS011;37417;48.118;11.734;2023-11-21T13:28:39;1.23;;;0.40;;
51332;SDS011;37417;48.118;11.734;2023-11-21T13:31:26;1.35;;;0.55;;
51332;SDS011;37417;48.118;11.734;2023-11-21T13:34:16;3.08;;;0.70;;
51332;SDS011;37417;48.118;11.734;2023-11-21T13:37:04;0.85;;;0.30;;
51332;SDS011;37417;48.118;11.734;2023-11-21T13:39:53;1.17;;;0.20;;
51332;SDS011;37417;48.118;11.734;2023-11-21T13:42:40;0.50;;;0.38;;
51332;SDS011;37417;48.118;11.734;2023-11-21T13:45:26;0.20;;;0.20;;
51332;SDS011;37417;48.118;11.734;2023-11-21T13:48:13;0.35;;;0.22;;
51332;SDS011;37417;48.118;11.734;2023-11-21T13:50:59;0.10;;;0.10;;
51332;SDS011;37417;48.118;11.734;2023-11-21T13:53:49;0.10;;;0.10;;
51332;SDS011;37417;48.118;11.734;2023-11-21T13:56:38;0.30;;;0.30;;
51332;SDS011;37417;48.118;11.734;2023-11-21T13:59:25;0.45;;;0.22;;
51332;SDS011;37417;48.118;11.734;2023-11-21T14:02:13;0.32;;;0.30;;
51332;SDS011;37417;48.118;11.734;2023-11-21T14:05:03;0.25;;;0.25;;
51332;SDS011;37417;48.118;11.734;2023-11-21T14:07:57;0.25;;;0.20;;
51332;SDS011;37417;48.118;11.734;2023-11-21T14:10:50;3.53;;;0.30;;
51332;SDS011;37417;48.118;11.734;2023-11-21T14:13:42;1.95;;;0.30;;
51332;SDS011;37417;48.118;11.734;2023-11-21T14:16:31;0.35;;;0.35;;
51332;SDS011;37417;48.118;11.734;2023-11-21T14:19:20;1.45;;;0.40;;
51332;SDS011;37417;48.118;11.734;2023-11-21T14:22:06;0.98;;;0.55;;
51332;SDS011;37417;48.118;11.734;2023-11-21T14:24:54;0.30;;;0.30;;
51332;SDS011;37417;48.118;11.734;2023-11-21T14:27:43;2.95;;;0.60;;
51332;SDS011;37417;48.118;11.734;2023-11-21T14:30:29;0.35;;;0.32;;
51332;SDS011;37417;48.118;11.734;2023-11-21T14:33:17;0.95;;;0.38;;
51332;SDS011;37417;48.118;11.734;2023-11-21T14:36:03;0.40;;;0.40;;
51332;SDS011;37417;48.118;11.734;2023-11-21T14:38:48;0.38;;;0.10;;
51332;SDS011;37417;48.118;11.734;2023-11-21T14:41:34;1.08;;;0.10;;
51332;SDS011;37417;48.118;11.734;2023-11-21T14:44:21;0.00;;;0.00;;
51332;SDS011;37417;48.118;11.734;2023-11-21T14:47:11;0.20;;;0.20;;
51332;SDS011;37417;48.118;11.734;2023-11-21T14:50:04;0.10;;;0.10;;
51332;SDS011;37417;48.118;11.734;2023-11-21T14:53:13;0.20;;;0.20;;
51332;SDS011;37417;48.118;11.734;2023-11-21T14:55:58;0.20;;;0.20;;
51332;SDS011;37417;48.118;11.734;2023-11-21T14:58:45;1.27;;;0.25;;
51332;SDS011;37417;48.118;11.734;2023-11-21T15:01:31;2.78;;;0.38;;
51332;SDS011;37417;48.118;11.734;2023-11-21T15:04:35;0.63;;;0.20;;
51332;SDS011;37417;48.118;11.734;2023-11-21T15:07:22;1.23;;;0.30;;
51332;SDS011;37417;48.118;11.734;2023-11-21T15:10:11;0.38;;;0.38;;
51332;SDS011;37417;48.118;11.734;2023-11-21T15:13:00;0.77;;;0.47;;
51332;SDS011;37417;48.118;11.734;2023-11-21T15:15:45;1.05;;;0.60;;
51332;SDS011;37417;48.118;11.734;2023-11-21T15:18:31;2.38;;;0.40;;
51332;SDS011;37417;48.118;11.734;2023-11-21T15:21:17;0.80;;;0.55;;
51332;SDS011;37417;48.118;11.734;2023-11-21T15:24:02;1.17;;;0.82;;
51332;SDS011;37417;48.118;11.734;2023-11-21T15:26:48;1.80;;;0.80;;
51332;SDS011;37417;48.118;11.734;2023-11-21T15:29:35;0.88;;;0.57;;
51332;SDS011;37417;48.118;11.734;2023-11-21T15:32:20;0.50;;;0.50;;
51332;SDS011;37417;48.118;11.734;2023-11-21T15:35:07;1.42;;;0.50;;
51332;SDS011;37417;48.118;11.734;2023-11-21T15:37:57;0.50;;;0.47;;
51332;SDS011;37417;48.118;11.734;2023-11-21T15:40:44;0.80;;;0.60;;
51332;SDS011;37417;48.118;11.734;2023-11-21T15:43:31;1.08;;;0.63;;
51332;SDS011;37417;48.118;11.734;2023-11-21T15:46:17;0.75;;;0.60;;
51332;SDS011;37417;48.118;11.734;2023-11-21T15:49:03;0.70;;;0.60;;
51332;SDS011;37417;48.118;11.734;2023-11-21T15:51:57;1.88;;;0.60;;
51332;SDS011;37417;48.118;11.734;2023-11-21T15:54:44;1.48;;;0.82;;
51332;SDS011;37417;48.118;11.734;2023-11-21T15:57:31;1.15;;;0.70;;
51332;SDS011;37417;48.118;11.734;2023-11-21T16:00:16;2.08;;;1.23;;
51332;SDS011;37417;48.118;11.734;2023-11-21T16:03:05;1.20;;;0.80;;
51332;SDS011;37417;48.118;11.734;2023-11-21T16:05:50;1.17;;;0.95;;
51332;SDS011;37417;48.118;11.734;2023-11-21T16:08:36;1.25;;;1.05;;
51332;SDS011;37417;48.118;11.734;2023-11-21T16:11:22;1.80;;;1.08;;
51332;SDS011;37417;48.118;11.734;2023-11-21T16:14:08;0.70;;;0.70;;
51332;SDS011;37417;48.118;11.734;2023-11-21T16:16:54;1.40;;;0.85;;
51332;SDS011;37417;48.118;11.734;2023-11-21T16:19:40;2.75;;;0.70;;
51332;SDS011;37417;48.118;11.734;2023-11-21T16:22:25;0.90;;;0.70;;
51332;SDS011;37417;48.118;11.734;2023-11-21T16:25:13;3.13;;;1.10;;
51332;SDS011;37417;48.118;11.734;2023-11-21T16:27:59;5.55;;;1.52;;
51332;SDS011;37417;48.118;11.734;2023-11-21T16:30:49;4.90;;;1.85;;
51332;SDS011;37417;48.118;11.734;2023-11-21T16:33:36;2.83;;;1.25;;
51332;SDS011;37417;48.118;11.734;2023-11-21T16:36:21;2.15;;;1.23;;
51332;SDS011;37417;48.118;11.734;2023-11-21T16:39:08;5.45;;;2.17;;
51332;SDS011;37417;48.118;11.734;2023-11-21T16:41:57;6.53;;;2.33;;
51332;SDS011;37417;48.118;11.734;2023-11-21T16:44:43;4.18;;;2.03;;